Glen Cove, New York
Current Conditions -  °F | °C
As of 6:51 AM on Monday 20 Oct 2014 (Local Time) from KLGA Reporting Station
Broken Clouds Broken Clouds  
Wind Chill: 42°   Ceiling: 25000
Heat Index: 45°   Visibility: 10mi
Dew Point: 30°   Wind: 6mph
Humidity: 56%   Direction: 270°W
Pressure: 30.09"   Gusts: NA
Location:  40.86°N, 73.63°W
Report Text: KLGA 201051Z 27005KT 10SM FEW110 BKN250 07/M01 A3009 RMK AO2 SLP189 T00721011
Loading
Personal Weather Stations






























Interactive Weather Map
Tropical Storm Tracking
New forecast layout! Learn more

10-Day Weather Forecast

Advertisements
Track Severe Weather on mobile